sensor_id;sensor_type;location;lat;lon;timestamp;P1;durP1;ratioP1;P2;durP2;ratioP2
40717;SDS011;26405;51.850;-2.246;2023-01-08T00:00:38;18.95;;;4.93;;
40717;SDS011;26405;51.850;-2.246;2023-01-08T00:03:03;25.50;;;4.88;;
40717;SDS011;26405;51.850;-2.246;2023-01-08T00:05:29;23.42;;;4.93;;
40717;SDS011;26405;51.850;-2.246;2023-01-08T00:07:54;21.85;;;4.47;;
40717;SDS011;26405;51.850;-2.246;2023-01-08T00:10:19;24.05;;;5.85;;
40717;SDS011;26405;51.850;-2.246;2023-01-08T00:12:44;23.80;;;4.20;;
40717;SDS011;26405;51.850;-2.246;2023-01-08T00:15:10;22.77;;;4.88;;
40717;SDS011;26405;51.850;-2.246;2023-01-08T00:17:35;20.40;;;4.47;;
40717;SDS011;26405;51.850;-2.246;2023-01-08T00:20:00;17.92;;;4.25;;
40717;SDS011;26405;51.850;-2.246;2023-01-08T00:22:25;20.00;;;4.05;;
40717;SDS011;26405;51.850;-2.246;2023-01-08T00:24:50;18.63;;;4.30;;
40717;SDS011;26405;51.850;-2.246;2023-01-08T00:27:16;22.40;;;4.40;;
40717;SDS011;26405;51.850;-2.246;2023-01-08T00:29:41;16.45;;;4.10;;
40717;SDS011;26405;51.850;-2.246;2023-01-08T00:32:06;20.48;;;4.30;;
40717;SDS011;26405;51.850;-2.246;2023-01-08T00:34:31;25.15;;;4.82;;
40717;SDS011;26405;51.850;-2.246;2023-01-08T00:36:57;22.13;;;4.85;;
40717;SDS011;26405;51.850;-2.246;2023-01-08T00:39:22;18.63;;;3.88;;
40717;SDS011;26405;51.850;-2.246;2023-01-08T00:41:47;22.67;;;4.15;;
40717;SDS011;26405;51.850;-2.246;2023-01-08T00:44:13;19.48;;;3.50;;
40717;SDS011;26405;51.850;-2.246;2023-01-08T00:46:38;17.33;;;4.32;;
40717;SDS011;26405;51.850;-2.246;2023-01-08T00:49:04;20.10;;;4.68;;
40717;SDS011;26405;51.850;-2.246;2023-01-08T00:51:29;16.13;;;3.58;;
40717;SDS011;26405;51.850;-2.246;2023-01-08T00:53:54;20.00;;;4.47;;
40717;SDS011;26405;51.850;-2.246;2023-01-08T00:56:19;18.35;;;3.83;;
40717;SDS011;26405;51.850;-2.246;2023-01-08T00:58:45;23.20;;;4.40;;
40717;SDS011;26405;51.850;-2.246;2023-01-08T01:01:11;16.67;;;3.55;;
40717;SDS011;26405;51.850;-2.246;2023-01-08T01:03:37;15.55;;;3.60;;
40717;SDS011;26405;51.850;-2.246;2023-01-08T01:06:03;15.32;;;3.47;;
40717;SDS011;26405;51.850;-2.246;2023-01-08T01:08:29;17.02;;;3.22;;
40717;SDS011;26405;51.850;-2.246;2023-01-08T01:10:54;14.70;;;3.08;;
40717;SDS011;26405;51.850;-2.246;2023-01-08T01:13:19;12.25;;;3.80;;
40717;SDS011;26405;51.850;-2.246;2023-01-08T01:15:44;12.68;;;2.78;;
40717;SDS011;26405;51.850;-2.246;2023-01-08T01:18:10;11.55;;;2.63;;
40717;SDS011;26405;51.850;-2.246;2023-01-08T01:20:35;8.93;;;2.53;;
40717;SDS011;26405;51.850;-2.246;2023-01-08T01:23:00;8.85;;;2.50;;
40717;SDS011;26405;51.850;-2.246;2023-01-08T01:25:25;14.10;;;3.00;;
40717;SDS011;26405;51.850;-2.246;2023-01-08T01:27:51;12.45;;;2.50;;
40717;SDS011;26405;51.850;-2.246;2023-01-08T01:30:16;8.52;;;2.38;;
40717;SDS011;26405;51.850;-2.246;2023-01-08T01:32:41;11.48;;;2.90;;
40717;SDS011;26405;51.850;-2.246;2023-01-08T01:35:06;9.90;;;2.60;;
40717;SDS011;26405;51.850;-2.246;2023-01-08T01:37:32;10.50;;;2.90;;
40717;SDS011;26405;51.850;-2.246;2023-01-08T01:39:57;9.10;;;2.42;;
40717;SDS011;26405;51.850;-2.246;2023-01-08T01:42:22;12.68;;;3.20;;
40717;SDS011;26405;51.850;-2.246;2023-01-08T01:47:37;12.27;;;3.10;;
40717;SDS011;26405;51.850;-2.246;2023-01-08T01:50:04;13.07;;;3.03;;
40717;SDS011;26405;51.850;-2.246;2023-01-08T01:52:33;13.07;;;2.75;;
40717;SDS011;26405;51.850;-2.246;2023-01-08T01:55:01;13.07;;;3.10;;
40717;SDS011;26405;51.850;-2.246;2023-01-08T01:57:27;16.95;;;2.92;;
40717;SDS011;26405;51.850;-2.246;2023-01-08T01:59:53;13.45;;;3.05;;
40717;SDS011;26405;51.850;-2.246;2023-01-08T02:02:19;14.10;;;3.38;;
40717;SDS011;26405;51.850;-2.246;2023-01-08T02:04:44;16.67;;;3.58;;
40717;SDS011;26405;51.850;-2.246;2023-01-08T02:07:30;13.15;;;3.33;;
40717;SDS011;26405;51.850;-2.246;2023-01-08T02:12:30;13.20;;;3.50;;
40717;SDS011;26405;51.850;-2.246;2023-01-08T02:17:41;15.38;;;3.40;;
40717;SDS011;26405;51.850;-2.246;2023-01-08T02:20:19;14.13;;;3.25;;
40717;SDS011;26405;51.850;-2.246;2023-01-08T02:27:47;16.60;;;3.60;;
40717;SDS011;26405;51.850;-2.246;2023-01-08T02:30:14;18.95;;;4.00;;
40717;SDS011;26405;51.850;-2.246;2023-01-08T02:32:39;17.00;;;4.15;;
40717;SDS011;26405;51.850;-2.246;2023-01-08T02:35:06;14.23;;;3.40;;
40717;SDS011;26405;51.850;-2.246;2023-01-08T02:37:31;18.70;;;4.28;;
40717;SDS011;26405;51.850;-2.246;2023-01-08T02:45:25;22.65;;;3.65;;
40717;SDS011;26405;51.850;-2.246;2023-01-08T02:50:23;19.53;;;4.27;;
40717;SDS011;26405;51.850;-2.246;2023-01-08T02:52:51;14.48;;;3.90;;
40717;SDS011;26405;51.850;-2.246;2023-01-08T02:55:20;18.83;;;4.05;;
40717;SDS011;26405;51.850;-2.246;2023-01-08T02:57:46;16.25;;;3.80;;
40717;SDS011;26405;51.850;-2.246;2023-01-08T03:00:12;12.52;;;3.25;;
40717;SDS011;26405;51.850;-2.246;2023-01-08T03:02:37;17.95;;;3.92;;
40717;SDS011;26405;51.850;-2.246;2023-01-08T03:05:06;18.15;;;3.50;;
40717;SDS011;26405;51.850;-2.246;2023-01-08T03:07:33;18.25;;;4.20;;
40717;SDS011;26405;51.850;-2.246;2023-01-08T03:09:59;18.52;;;3.65;;
40717;SDS011;26405;51.850;-2.246;2023-01-08T03:15:42;18.08;;;3.50;;
40717;SDS011;26405;51.850;-2.246;2023-01-08T03:18:06;15.85;;;3.75;;
40717;SDS011;26405;51.850;-2.246;2023-01-08T03:20:33;16.67;;;3.78;;
40717;SDS011;26405;51.850;-2.246;2023-01-08T03:23:00;22.13;;;5.22;;
40717;SDS011;26405;51.850;-2.246;2023-01-08T03:25:27;23.20;;;4.80;;
40717;SDS011;26405;51.850;-2.246;2023-01-08T03:27:54;18.25;;;4.90;;
40717;SDS011;26405;51.850;-2.246;2023-01-08T03:30:21;21.48;;;4.25;;
40717;SDS011;26405;51.850;-2.246;2023-01-08T03:32:47;15.18;;;3.70;;
40717;SDS011;26405;51.850;-2.246;2023-01-08T03:37:41;19.73;;;3.73;;
40717;SDS011;26405;51.850;-2.246;2023-01-08T03:42:32;18.10;;;3.70;;
40717;SDS011;26405;51.850;-2.246;2023-01-08T03:44:58;16.15;;;3.65;;
40717;SDS011;26405;51.850;-2.246;2023-01-08T03:47:23;17.83;;;4.05;;
40717;SDS011;26405;51.850;-2.246;2023-01-08T03:49:49;21.10;;;4.00;;
40717;SDS011;26405;51.850;-2.246;2023-01-08T03:52:20;18.15;;;4.22;;
40717;SDS011;26405;51.850;-2.246;2023-01-08T03:54:46;19.85;;;3.92;;
40717;SDS011;26405;51.850;-2.246;2023-01-08T03:57:11;15.93;;;3.45;;
40717;SDS011;26405;51.850;-2.246;2023-01-08T03:59:36;19.52;;;3.67;;
40717;SDS011;26405;51.850;-2.246;2023-01-08T04:02:01;15.40;;;3.65;;
40717;SDS011;26405;51.850;-2.246;2023-01-08T04:04:27;17.50;;;3.42;;
40717;SDS011;26405;51.850;-2.246;2023-01-08T04:06:52;14.23;;;3.35;;
40717;SDS011;26405;51.850;-2.246;2023-01-08T04:09:17;16.65;;;3.40;;
40717;SDS011;26405;51.850;-2.246;2023-01-08T04:11:42;19.70;;;3.40;;
40717;SDS011;26405;51.850;-2.246;2023-01-08T04:14:08;19.00;;;3.30;;
40717;SDS011;26405;51.850;-2.246;2023-01-08T04:16:33;10.70;;;2.80;;
40717;SDS011;26405;51.850;-2.246;2023-01-08T04:18:58;12.02;;;2.75;;
40717;SDS011;26405;51.850;-2.246;2023-01-08T04:21:24;9.13;;;2.63;;
40717;SDS011;26405;51.850;-2.246;2023-01-08T04:23:49;11.30;;;2.83;;
40717;SDS011;26405;51.850;-2.246;2023-01-08T04:26:14;15.00;;;3.00;;
40717;SDS011;26405;51.850;-2.246;2023-01-08T04:28:39;9.68;;;2.58;;
40717;SDS011;26405;51.850;-2.246;2023-01-08T04:31:05;13.27;;;2.65;;
40717;SDS011;26405;51.850;-2.246;2023-01-08T04:33:31;14.30;;;2.80;;
40717;SDS011;26405;51.850;-2.246;2023-01-08T04:35:56;9.00;;;2.50;;
40717;SDS011;26405;51.850;-2.246;2023-01-08T04:38:21;14.40;;;3.53;;
40717;SDS011;26405;51.850;-2.246;2023-01-08T04:40:46;9.80;;;3.00;;
40717;SDS011;26405;51.850;-2.246;2023-01-08T04:43:12;11.85;;;2.83;;
40717;SDS011;26405;51.850;-2.246;2023-01-08T04:45:37;10.82;;;2.63;;
40717;SDS011;26405;51.850;-2.246;2023-01-08T04:48:03;9.73;;;2.50;;
40717;SDS011;26405;51.850;-2.246;2023-01-08T04:50:29;9.93;;;2.22;;
40717;SDS011;26405;51.850;-2.246;2023-01-08T04:52:54;11.05;;;2.40;;
40717;SDS011;26405;51.850;-2.246;2023-01-08T04:55:19;7.57;;;2.25;;
40717;SDS011;26405;51.850;-2.246;2023-01-08T04:57:45;6.95;;;2.25;;
40717;SDS011;26405;51.850;-2.246;2023-01-08T05:00:10;9.52;;;2.53;;
40717;SDS011;26405;51.850;-2.246;2023-01-08T05:02:35;6.53;;;2.00;;
40717;SDS011;26405;51.850;-2.246;2023-01-08T05:05:01;6.50;;;1.70;;
40717;SDS011;26405;51.850;-2.246;2023-01-08T05:07:26;7.30;;;1.92;;
40717;SDS011;26405;51.850;-2.246;2023-01-08T05:09:51;9.57;;;2.00;;
40717;SDS011;26405;51.850;-2.246;2023-01-08T05:12:17;4.82;;;1.55;;
40717;SDS011;26405;51.850;-2.246;2023-01-08T05:14:42;3.65;;;1.60;;
40717;SDS011;26405;51.850;-2.246;2023-01-08T05:17:08;5.15;;;1.80;;
40717;SDS011;26405;51.850;-2.246;2023-01-08T05:19:33;3.35;;;1.40;;
40717;SDS011;26405;51.850;-2.246;2023-01-08T05:21:58;6.10;;;1.48;;
40717;SDS011;26405;51.850;-2.246;2023-01-08T05:24:23;2.85;;;1.35;;
40717;SDS011;26405;51.850;-2.246;2023-01-08T05:26:49;5.15;;;1.70;;
40717;SDS011;26405;51.850;-2.246;2023-01-08T05:29:14;5.53;;;1.40;;
40717;SDS011;26405;51.850;-2.246;2023-01-08T05:31:40;4.82;;;1.70;;
40717;SDS011;26405;51.850;-2.246;2023-01-08T05:34:05;4.50;;;1.50;;
40717;SDS011;26405;51.850;-2.246;2023-01-08T05:36:30;3.80;;;1.40;;
40717;SDS011;26405;51.850;-2.246;2023-01-08T05:38:55;4.45;;;1.60;;
40717;SDS011;26405;51.850;-2.246;2023-01-08T05:41:20;3.20;;;1.33;;
40717;SDS011;26405;51.850;-2.246;2023-01-08T05:43:46;5.53;;;1.40;;
40717;SDS011;26405;51.850;-2.246;2023-01-08T05:46:11;5.15;;;1.30;;
40717;SDS011;26405;51.850;-2.246;2023-01-08T05:48:36;5.75;;;1.60;;
40717;SDS011;26405;51.850;-2.246;2023-01-08T05:51:02;5.43;;;1.67;;
40717;SDS011;26405;51.850;-2.246;2023-01-08T05:53:27;3.67;;;1.50;;
40717;SDS011;26405;51.850;-2.246;2023-01-08T05:56:00;4.55;;;1.20;;
40717;SDS011;26405;51.850;-2.246;2023-01-08T05:58:26;4.97;;;1.40;;
40717;SDS011;26405;51.850;-2.246;2023-01-08T06:00:51;4.65;;;1.42;;
40717;SDS011;26405;51.850;-2.246;2023-01-08T06:03:18;5.65;;;1.85;;
40717;SDS011;26405;51.850;-2.246;2023-01-08T06:05:44;4.88;;;1.55;;
40717;SDS011;26405;51.850;-2.246;2023-01-08T06:08:09;3.97;;;1.60;;
40717;SDS011;26405;51.850;-2.246;2023-01-08T06:10:36;6.53;;;1.73;;
40717;SDS011;26405;51.850;-2.246;2023-01-08T06:13:04;6.03;;;1.48;;
40717;SDS011;26405;51.850;-2.246;2023-01-08T06:15:30;8.38;;;1.95;;
40717;SDS011;26405;51.850;-2.246;2023-01-08T06:17:55;8.18;;;2.00;;
40717;SDS011;26405;51.850;-2.246;2023-01-08T06:20:21;6.93;;;2.00;;
40717;SDS011;26405;51.850;-2.246;2023-01-08T06:22:46;8.18;;;2.30;;
40717;SDS011;26405;51.850;-2.246;2023-01-08T06:25:11;13.10;;;2.65;;
40717;SDS011;26405;51.850;-2.246;2023-01-08T06:27:36;8.95;;;2.25;;
40717;SDS011;26405;51.850;-2.246;2023-01-08T06:30:02;9.60;;;2.20;;
40717;SDS011;26405;51.850;-2.246;2023-01-08T06:32:27;12.13;;;2.42;;
40717;SDS011;26405;51.850;-2.246;2023-01-08T06:34:53;7.95;;;2.20;;
40717;SDS011;26405;51.850;-2.246;2023-01-08T06:37:18;10.60;;;2.10;;
40717;SDS011;26405;51.850;-2.246;2023-01-08T06:39:43;8.55;;;2.28;;
40717;SDS011;26405;51.850;-2.246;2023-01-08T06:42:08;10.07;;;2.60;;
40717;SDS011;26405;51.850;-2.246;2023-01-08T06:44:34;8.48;;;2.20;;
40717;SDS011;26405;51.850;-2.246;2023-01-08T06:46:59;8.38;;;2.30;;
40717;SDS011;26405;51.850;-2.246;2023-01-08T06:49:24;7.53;;;1.70;;
40717;SDS011;26405;51.850;-2.246;2023-01-08T06:51:50;6.60;;;2.20;;
40717;SDS011;26405;51.850;-2.246;2023-01-08T06:54:15;7.15;;;2.17;;
40717;SDS011;26405;51.850;-2.246;2023-01-08T06:56:40;6.50;;;2.00;;
40717;SDS011;26405;51.850;-2.246;2023-01-08T06:59:05;6.63;;;2.38;;
40717;SDS011;26405;51.850;-2.246;2023-01-08T07:01:31;8.43;;;2.22;;
40717;SDS011;26405;51.850;-2.246;2023-01-08T07:03:56;7.60;;;1.85;;
40717;SDS011;26405;51.850;-2.246;2023-01-08T07:06:21;6.15;;;1.90;;
40717;SDS011;26405;51.850;-2.246;2023-01-08T07:08:47;8.13;;;2.20;;
40717;SDS011;26405;51.850;-2.246;2023-01-08T07:11:12;5.72;;;1.90;;
40717;SDS011;26405;51.850;-2.246;2023-01-08T07:13:38;7.90;;;2.10;;
40717;SDS011;26405;51.850;-2.246;2023-01-08T07:16:04;10.23;;;2.10;;
40717;SDS011;26405;51.850;-2.246;2023-01-08T07:18:29;8.83;;;2.03;;
40717;SDS011;26405;51.850;-2.246;2023-01-08T07:20:55;8.02;;;2.00;;
40717;SDS011;26405;51.850;-2.246;2023-01-08T07:23:20;8.18;;;2.45;;
40717;SDS011;26405;51.850;-2.246;2023-01-08T07:25:45;7.15;;;1.90;;
40717;SDS011;26405;51.850;-2.246;2023-01-08T07:28:11;9.98;;;2.22;;
40717;SDS011;26405;51.850;-2.246;2023-01-08T07:30:37;8.63;;;1.92;;
40717;SDS011;26405;51.850;-2.246;2023-01-08T07:33:02;6.38;;;2.03;;
40717;SDS011;26405;51.850;-2.246;2023-01-08T07:35:28;7.03;;;2.22;;
40717;SDS011;26405;51.850;-2.246;2023-01-08T07:37:53;6.70;;;1.70;;
40717;SDS011;26405;51.850;-2.246;2023-01-08T07:40:18;7.80;;;2.50;;
40717;SDS011;26405;51.850;-2.246;2023-01-08T07:42:43;7.18;;;2.15;;
40717;SDS011;26405;51.850;-2.246;2023-01-08T07:45:09;6.75;;;2.17;;
40717;SDS011;26405;51.850;-2.246;2023-01-08T07:47:34;7.85;;;2.13;;
40717;SDS011;26405;51.850;-2.246;2023-01-08T07:49:59;7.95;;;2.45;;
40717;SDS011;26405;51.850;-2.246;2023-01-08T07:52:25;8.02;;;1.98;;
40717;SDS011;26405;51.850;-2.246;2023-01-08T07:54:50;9.27;;;2.20;;
40717;SDS011;26405;51.850;-2.246;2023-01-08T07:57:15;8.73;;;2.45;;
40717;SDS011;26405;51.850;-2.246;2023-01-08T07:59:41;11.48;;;2.40;;
40717;SDS011;26405;51.850;-2.246;2023-01-08T08:02:06;10.52;;;2.55;;
40717;SDS011;26405;51.850;-2.246;2023-01-08T08:04:31;15.18;;;2.63;;
40717;SDS011;26405;51.850;-2.246;2023-01-08T08:06:56;10.27;;;2.30;;
40717;SDS011;26405;51.850;-2.246;2023-01-08T08:09:22;10.57;;;2.42;;
40717;SDS011;26405;51.850;-2.246;2023-01-08T08:11:47;10.70;;;2.42;;
40717;SDS011;26405;51.850;-2.246;2023-01-08T08:14:12;13.48;;;3.15;;
40717;SDS011;26405;51.850;-2.246;2023-01-08T08:16:37;14.05;;;2.88;;
40717;SDS011;26405;51.850;-2.246;2023-01-08T08:19:03;12.57;;;3.17;;
40717;SDS011;26405;51.850;-2.246;2023-01-08T08:21:28;11.82;;;2.70;;
40717;SDS011;26405;51.850;-2.246;2023-01-08T08:23:54;11.15;;;2.58;;
40717;SDS011;26405;51.850;-2.246;2023-01-08T08:26:20;10.65;;;2.50;;
40717;SDS011;26405;51.850;-2.246;2023-01-08T08:28:45;12.73;;;2.83;;
40717;SDS011;26405;51.850;-2.246;2023-01-08T08:31:10;12.77;;;2.90;;
40717;SDS011;26405;51.850;-2.246;2023-01-08T08:33:36;18.08;;;3.17;;
40717;SDS011;26405;51.850;-2.246;2023-01-08T08:36:01;15.80;;;3.13;;
40717;SDS011;26405;51.850;-2.246;2023-01-08T08:38:26;14.13;;;2.92;;
40717;SDS011;26405;51.850;-2.246;2023-01-08T08:40:51;14.27;;;2.88;;
40717;SDS011;26405;51.850;-2.246;2023-01-08T08:43:17;16.50;;;3.63;;
40717;SDS011;26405;51.850;-2.246;2023-01-08T08:45:42;20.40;;;3.42;;
40717;SDS011;26405;51.850;-2.246;2023-01-08T08:48:07;14.93;;;3.05;;
40717;SDS011;26405;51.850;-2.246;2023-01-08T08:50:33;16.40;;;3.25;;
40717;SDS011;26405;51.850;-2.246;2023-01-08T08:52:59;13.50;;;3.03;;
40717;SDS011;26405;51.850;-2.246;2023-01-08T08:55:24;13.77;;;2.80;;
40717;SDS011;26405;51.850;-2.246;2023-01-08T08:57:50;15.23;;;2.95;;
40717;SDS011;26405;51.850;-2.246;2023-01-08T09:00:15;18.67;;;3.13;;
40717;SDS011;26405;51.850;-2.246;2023-01-08T09:02:41;13.35;;;2.85;;
40717;SDS011;26405;51.850;-2.246;2023-01-08T09:05:06;17.25;;;2.92;;
40717;SDS011;26405;51.850;-2.246;2023-01-08T09:07:31;16.60;;;3.00;;
40717;SDS011;26405;51.850;-2.246;2023-01-08T09:09:56;13.15;;;3.15;;
40717;SDS011;26405;51.850;-2.246;2023-01-08T09:12:22;17.58;;;3.03;;
40717;SDS011;26405;51.850;-2.246;2023-01-08T09:14:47;13.02;;;2.95;;
40717;SDS011;26405;51.850;-2.246;2023-01-08T09:17:14;14.18;;;3.03;;
40717;SDS011;26405;51.850;-2.246;2023-01-08T09:19:39;24.83;;;3.63;;
40717;SDS011;26405;51.850;-2.246;2023-01-08T09:22:04;17.13;;;3.78;;
40717;SDS011;26405;51.850;-2.246;2023-01-08T09:24:30;15.43;;;3.28;;
40717;SDS011;26405;51.850;-2.246;2023-01-08T09:26:56;17.63;;;3.10;;
40717;SDS011;26405;51.850;-2.246;2023-01-08T09:29:21;12.38;;;2.80;;
40717;SDS011;26405;51.850;-2.246;2023-01-08T09:31:47;16.77;;;3.50;;
40717;SDS011;26405;51.850;-2.246;2023-01-08T09:34:12;18.05;;;3.45;;
40717;SDS011;26405;51.850;-2.246;2023-01-08T09:36:37;16.33;;;3.13;;
40717;SDS011;26405;51.850;-2.246;2023-01-08T09:39:02;13.57;;;3.42;;
40717;SDS011;26405;51.850;-2.246;2023-01-08T09:41:30;15.57;;;3.35;;
40717;SDS011;26405;51.850;-2.246;2023-01-08T09:43:56;15.65;;;3.05;;
40717;SDS011;26405;51.850;-2.246;2023-01-08T09:46:23;12.53;;;2.70;;
40717;SDS011;26405;51.850;-2.246;2023-01-08T09:48:50;14.27;;;3.00;;
40717;SDS011;26405;51.850;-2.246;2023-01-08T09:51:17;14.57;;;3.20;;
40717;SDS011;26405;51.850;-2.246;2023-01-08T09:53:43;18.20;;;3.10;;
40717;SDS011;26405;51.850;-2.246;2023-01-08T09:56:18;14.23;;;3.50;;
40717;SDS011;26405;51.850;-2.246;2023-01-08T09:58:50;14.32;;;2.92;;
40717;SDS011;26405;51.850;-2.246;2023-01-08T10:01:17;15.68;;;3.00;;
40717;SDS011;26405;51.850;-2.246;2023-01-08T10:03:51;14.85;;;2.92;;
40717;SDS011;26405;51.850;-2.246;2023-01-08T10:06:17;14.38;;;3.70;;
40717;SDS011;26405;51.850;-2.246;2023-01-08T10:08:43;10.80;;;2.92;;
40717;SDS011;26405;51.850;-2.246;2023-01-08T10:11:09;18.83;;;3.45;;
40717;SDS011;26405;51.850;-2.246;2023-01-08T10:13:38;12.35;;;3.03;;
40717;SDS011;26405;51.850;-2.246;2023-01-08T10:16:07;15.98;;;3.33;;
40717;SDS011;26405;51.850;-2.246;2023-01-08T10:18:34;12.05;;;3.05;;
40717;SDS011;26405;51.850;-2.246;2023-01-08T10:20:59;12.20;;;3.00;;
40717;SDS011;26405;51.850;-2.246;2023-01-08T10:23:24;14.30;;;2.72;;
40717;SDS011;26405;51.850;-2.246;2023-01-08T10:25:51;16.90;;;3.30;;
40717;SDS011;26405;51.850;-2.246;2023-01-08T10:30:42;14.80;;;3.30;;
40717;SDS011;26405;51.850;-2.246;2023-01-08T10:33:13;15.15;;;3.10;;
40717;SDS011;26405;51.850;-2.246;2023-01-08T10:35:40;15.73;;;2.90;;
40717;SDS011;26405;51.850;-2.246;2023-01-08T10:38:18;12.17;;;3.03;;
40717;SDS011;26405;51.850;-2.246;2023-01-08T10:40:46;9.63;;;2.50;;
40717;SDS011;26405;51.850;-2.246;2023-01-08T10:43:33;11.38;;;2.70;;
40717;SDS011;26405;51.850;-2.246;2023-01-08T10:46:02;14.00;;;2.97;;
40717;SDS011;26405;51.850;-2.246;2023-01-08T10:48:53;14.15;;;3.00;;
40717;SDS011;26405;51.850;-2.246;2023-01-08T10:51:19;16.35;;;4.28;;
40717;SDS011;26405;51.850;-2.246;2023-01-08T10:53:44;15.18;;;3.65;;
40717;SDS011;26405;51.850;-2.246;2023-01-08T10:56:20;9.88;;;2.70;;
40717;SDS011;26405;51.850;-2.246;2023-01-08T10:58:46;13.70;;;4.22;;
40717;SDS011;26405;51.850;-2.246;2023-01-08T11:01:15;16.08;;;3.30;;
40717;SDS011;26405;51.850;-2.246;2023-01-08T11:03:40;10.50;;;2.80;;
40717;SDS011;26405;51.850;-2.246;2023-01-08T11:06:10;11.55;;;3.00;;
40717;SDS011;26405;51.850;-2.246;2023-01-08T11:08:36;10.73;;;2.78;;
40717;SDS011;26405;51.850;-2.246;2023-01-08T11:11:01;8.90;;;2.60;;
40717;SDS011;26405;51.850;-2.246;2023-01-08T11:13:26;10.05;;;2.50;;
40717;SDS011;26405;51.850;-2.246;2023-01-08T11:16:05;10.52;;;2.42;;
40717;SDS011;26405;51.850;-2.246;2023-01-08T11:18:34;8.18;;;2.38;;
40717;SDS011;26405;51.850;-2.246;2023-01-08T11:21:09;8.02;;;2.03;;
40717;SDS011;26405;51.850;-2.246;2023-01-08T11:23:41;6.20;;;1.70;;
40717;SDS011;26405;51.850;-2.246;2023-01-08T11:26:07;8.55;;;2.03;;
40717;SDS011;26405;51.850;-2.246;2023-01-08T11:28:48;6.43;;;2.13;;
40717;SDS011;26405;51.850;-2.246;2023-01-08T11:31:17;8.90;;;2.53;;
40717;SDS011;26405;51.850;-2.246;2023-01-08T11:33:43;5.80;;;2.05;;
40717;SDS011;26405;51.850;-2.246;2023-01-08T11:36:19;6.95;;;2.10;;
40717;SDS011;26405;51.850;-2.246;2023-01-08T11:38:46;8.10;;;2.25;;
40717;SDS011;26405;51.850;-2.246;2023-01-08T11:41:15;7.70;;;2.20;;
40717;SDS011;26405;51.850;-2.246;2023-01-08T11:48:56;10.80;;;2.60;;
40717;SDS011;26405;51.850;-2.246;2023-01-08T11:51:31;7.60;;;2.30;;
40717;SDS011;26405;51.850;-2.246;2023-01-08T11:56:33;5.05;;;2.38;;
40717;SDS011;26405;51.850;-2.246;2023-01-08T12:04:09;8.00;;;2.15;;
40717;SDS011;26405;51.850;-2.246;2023-01-08T12:06:48;5.03;;;2.15;;
40717;SDS011;26405;51.850;-2.246;2023-01-08T12:09:19;7.97;;;2.60;;
40717;SDS011;26405;51.850;-2.246;2023-01-08T12:11:49;10.38;;;2.80;;
40717;SDS011;26405;51.850;-2.246;2023-01-08T12:19:14;5.43;;;1.60;;
40717;SDS011;26405;51.850;-2.246;2023-01-08T12:27:04;4.32;;;1.73;;
40717;SDS011;26405;51.850;-2.246;2023-01-08T12:29:39;4.00;;;1.70;;
40717;SDS011;26405;51.850;-2.246;2023-01-08T12:37:03;5.40;;;1.70;;
40717;SDS011;26405;51.850;-2.246;2023-01-08T12:39:31;4.93;;;1.52;;
40717;SDS011;26405;51.850;-2.246;2023-01-08T12:42:03;4.60;;;1.63;;
40717;SDS011;26405;51.850;-2.246;2023-01-08T12:44:29;3.13;;;1.65;;
40717;SDS011;26405;51.850;-2.246;2023-01-08T12:46:56;7.30;;;2.03;;
40717;SDS011;26405;51.850;-2.246;2023-01-08T12:49:28;3.78;;;1.77;;
40717;SDS011;26405;51.850;-2.246;2023-01-08T12:52:18;3.47;;;1.80;;
40717;SDS011;26405;51.850;-2.246;2023-01-08T12:54:58;5.05;;;1.80;;
40717;SDS011;26405;51.850;-2.246;2023-01-08T12:57:38;3.22;;;1.52;;
40717;SDS011;26405;51.850;-2.246;2023-01-08T13:02:53;5.43;;;1.95;;
40717;SDS011;26405;51.850;-2.246;2023-01-08T13:07:46;11.70;;;2.38;;
40717;SDS011;26405;51.850;-2.246;2023-01-08T13:12:57;8.15;;;2.13;;
40717;SDS011;26405;51.850;-2.246;2023-01-08T13:15:24;12.68;;;3.20;;
40717;SDS011;26405;51.850;-2.246;2023-01-08T13:17:50;12.52;;;3.25;;
40717;SDS011;26405;51.850;-2.246;2023-01-08T13:20:20;9.15;;;2.85;;
40717;SDS011;26405;51.850;-2.246;2023-01-08T13:22:50;16.42;;;3.83;;
40717;SDS011;26405;51.850;-2.246;2023-01-08T13:27:45;11.23;;;2.93;;
40717;SDS011;26405;51.850;-2.246;2023-01-08T13:32:54;7.72;;;2.70;;
40717;SDS011;26405;51.850;-2.246;2023-01-08T13:35:29;11.80;;;3.40;;
40717;SDS011;26405;51.850;-2.246;2023-01-08T13:38:11;9.07;;;2.60;;
40717;SDS011;26405;51.850;-2.246;2023-01-08T13:43:03;11.65;;;3.50;;
40717;SDS011;26405;51.850;-2.246;2023-01-08T13:45:30;8.35;;;2.25;;
40717;SDS011;26405;51.850;-2.246;2023-01-08T13:47:55;7.25;;;2.30;;
40717;SDS011;26405;51.850;-2.246;2023-01-08T13:50:21;5.38;;;1.92;;
40717;SDS011;26405;51.850;-2.246;2023-01-08T13:52:55;8.02;;;1.90;;
40717;SDS011;26405;51.850;-2.246;2023-01-08T13:55:37;7.10;;;2.20;;
40717;SDS011;26405;51.850;-2.246;2023-01-08T13:58:07;6.38;;;1.90;;
40717;SDS011;26405;51.850;-2.246;2023-01-08T14:03:02;5.85;;;1.67;;
40717;SDS011;26405;51.850;-2.246;2023-01-08T14:05:28;6.68;;;1.70;;
40717;SDS011;26405;51.850;-2.246;2023-01-08T14:07:54;5.80;;;1.95;;
40717;SDS011;26405;51.850;-2.246;2023-01-08T14:10:20;5.45;;;1.75;;
40717;SDS011;26405;51.850;-2.246;2023-01-08T14:12:45;4.88;;;1.70;;
40717;SDS011;26405;51.850;-2.246;2023-01-08T14:15:16;6.10;;;1.77;;
40717;SDS011;26405;51.850;-2.246;2023-01-08T14:17:41;5.40;;;1.70;;
40717;SDS011;26405;51.850;-2.246;2023-01-08T14:20:08;6.03;;;1.77;;
40717;SDS011;26405;51.850;-2.246;2023-01-08T14:22:34;4.95;;;1.98;;
40717;SDS011;26405;51.850;-2.246;2023-01-08T14:25:01;6.88;;;1.92;;
40717;SDS011;26405;51.850;-2.246;2023-01-08T14:27:27;6.63;;;1.83;;
40717;SDS011;26405;51.850;-2.246;2023-01-08T14:29:53;8.90;;;2.00;;
40717;SDS011;26405;51.850;-2.246;2023-01-08T14:32:19;8.55;;;1.95;;
40717;SDS011;26405;51.850;-2.246;2023-01-08T14:34:45;5.30;;;1.95;;
40717;SDS011;26405;51.850;-2.246;2023-01-08T14:37:12;3.97;;;1.70;;
40717;SDS011;26405;51.850;-2.246;2023-01-08T14:39:37;7.85;;;2.28;;
40717;SDS011;26405;51.850;-2.246;2023-01-08T14:42:07;5.78;;;2.10;;
40717;SDS011;26405;51.850;-2.246;2023-01-08T14:44:54;7.32;;;2.35;;
40717;SDS011;26405;51.850;-2.246;2023-01-08T14:47:27;8.53;;;2.50;;
40717;SDS011;26405;51.850;-2.246;2023-01-08T14:49:54;7.00;;;2.17;;
40717;SDS011;26405;51.850;-2.246;2023-01-08T14:52:19;3.95;;;1.90;;
40717;SDS011;26405;51.850;-2.246;2023-01-08T14:54:46;6.30;;;2.00;;
40717;SDS011;26405;51.850;-2.246;2023-01-08T14:57:13;3.75;;;1.48;;
40717;SDS011;26405;51.850;-2.246;2023-01-08T14:59:38;8.18;;;2.10;;
40717;SDS011;26405;51.850;-2.246;2023-01-08T15:02:05;4.70;;;1.90;;
40717;SDS011;26405;51.850;-2.246;2023-01-08T15:04:30;5.87;;;1.77;;
40717;SDS011;26405;51.850;-2.246;2023-01-08T15:14:24;3.75;;;1.67;;
40717;SDS011;26405;51.850;-2.246;2023-01-08T15:16:50;4.53;;;1.75;;
40717;SDS011;26405;51.850;-2.246;2023-01-08T15:19:18;3.13;;;1.77;;
40717;SDS011;26405;51.850;-2.246;2023-01-08T15:21:46;2.85;;;1.65;;
40717;SDS011;26405;51.850;-2.246;2023-01-08T15:26:50;3.63;;;1.60;;
40717;SDS011;26405;51.850;-2.246;2023-01-08T15:29:22;3.72;;;1.67;;
40717;SDS011;26405;51.850;-2.246;2023-01-08T15:31:50;2.47;;;1.40;;
40717;SDS011;26405;51.850;-2.246;2023-01-08T15:34:17;5.65;;;2.30;;
40717;SDS011;26405;51.850;-2.246;2023-01-08T15:36:44;5.53;;;1.85;;
40717;SDS011;26405;51.850;-2.246;2023-01-08T15:39:09;5.27;;;2.40;;
40717;SDS011;26405;51.850;-2.246;2023-01-08T15:41:35;15.02;;;4.03;;
40717;SDS011;26405;51.850;-2.246;2023-01-08T15:44:19;19.40;;;5.40;;
40717;SDS011;26405;51.850;-2.246;2023-01-08T15:46:44;14.30;;;3.40;;
40717;SDS011;26405;51.850;-2.246;2023-01-08T15:49:09;8.30;;;3.08;;
40717;SDS011;26405;51.850;-2.246;2023-01-08T15:51:42;11.43;;;3.95;;
40717;SDS011;26405;51.850;-2.246;2023-01-08T15:54:11;9.85;;;4.00;;